Time;durP1;ratioP1;P1;durP2;ratioP2;P2;SDS_P1;SDS_P2;PMS_P1;PMS_P2;Temp;Humidity;BMP_temperature;BMP_pressure;BME280_temperature;BME280_humidity;BME280_pressure;Samples;Min_cycle;Max_cycle;Signal;HPM_P1;HPM_P2
2021/12/26 00:02:15;;;;;;;1.35;1.08;;;22.40;28.30;;;;;;5014800;28;20040;-59
2021/12/26 00:04:41;;;;;;;1.13;0.93;;;22.30;28.30;;;;;;5014666;28;20058;-60
2021/12/26 00:07:06;;;;;;;2.58;1.27;;;22.30;28.30;;;;;;5016865;28;20132;-59
2021/12/26 00:09:32;;;;;;;1.88;1.20;;;22.30;28.30;;;;;;5013185;28;20044;-59
2021/12/26 00:11:58;;;;;;;2.33;1.10;;;22.20;28.90;;;;;;5015922;28;20044;-60
2021/12/26 00:14:24;;;;;;;2.05;0.95;;;22.20;28.30;;;;;;5008827;28;20418;-59
2021/12/26 00:16:50;;;;;;;2.72;1.17;;;22.10;28.30;;;;;;5015191;28;20042;-59
2021/12/26 00:19:16;;;;;;;2.03;1.20;;;22.10;28.30;;;;;;5010792;28;20121;-59
2021/12/26 00:21:42;;;;;;;2.30;1.17;;;22.10;28.30;;;;;;5016247;28;20453;-58
2021/12/26 00:24:08;;;;;;;1.15;1.00;;;22.10;28.20;;;;;;5011073;28;20065;-59
2021/12/26 00:26:33;;;;;;;1.88;1.23;;;22.10;28.30;;;;;;5015313;28;20129;-59
2021/12/26 00:29:00;;;;;;;2.90;1.10;;;22.10;28.20;;;;;;5010963;28;26319;-59
2021/12/26 00:31:26;;;;;;;1.35;1.20;;;22.00;28.20;;;;;;5044882;28;20073;-59
2021/12/26 00:33:53;;;;;;;1.00;0.90;;;22.00;28.20;;;;;;5014211;28;20091;-59
2021/12/26 00:36:19;;;;;;;1.88;1.20;;;21.90;28.20;;;;;;5012490;28;20073;-60
2021/12/26 00:38:44;;;;;;;2.10;1.23;;;21.90;28.20;;;;;;5010622;28;20045;-60
2021/12/26 00:41:10;;;;;;;2.90;1.45;;;21.90;28.20;;;;;;5014632;28;20041;-59
2021/12/26 00:43:36;;;;;;;2.28;1.00;;;21.80;28.20;;;;;;5012138;28;25356;-58
2021/12/26 00:46:02;;;;;;;1.20;0.80;;;21.80;28.20;;;;;;5013404;28;20037;-59
2021/12/26 00:48:27;;;;;;;2.03;0.90;;;21.80;28.20;;;;;;5013236;28;20041;-58
2021/12/26 00:50:53;;;;;;;2.30;1.08;;;21.70;28.10;;;;;;5011689;28;20065;-59
2021/12/26 00:53:18;;;;;;;2.08;1.13;;;21.70;28.10;;;;;;5013485;28;20128;-59
2021/12/26 00:55:44;;;;;;;1.55;1.00;;;21.70;28.10;;;;;;5013892;28;20038;-59
2021/12/26 00:58:10;;;;;;;2.20;1.13;;;21.70;28.10;;;;;;5012886;28;20038;-59
2021/12/26 01:00:40;;;;;;;1.58;0.80;;;21.60;28.10;;;;;;5013273;28;20043;-59
2021/12/26 01:03:07;;;;;;;2.30;1.08;;;21.60;28.10;;;;;;5014434;28;20121;-59
2021/12/26 01:05:36;;;;;;;2.45;1.00;;;21.60;28.10;;;;;;5014336;28;20428;-59
2021/12/26 01:08:04;;;;;;;1.23;1.00;;;21.60;28.10;;;;;;5014345;28;20052;-59
2021/12/26 01:10:42;;;;;;;3.17;0.95;;;21.50;28.00;;;;;;5012244;28;25529;-59
2021/12/26 01:13:23;;;;;;;1.08;0.93;;;21.50;28.60;;;;;;5014246;28;20053;-59
2021/12/26 01:15:52;;;;;;;1.40;0.93;;;21.50;28.10;;;;;;5012954;28;20076;-59
2021/12/26 01:18:18;;;;;;;3.88;1.10;;;21.50;28.00;;;;;;5013773;28;20057;-59
2021/12/26 01:23:12;;;;;;;2.67;1.13;;;21.40;28.00;;;;;;5015033;28;20099;-58
2021/12/26 01:25:38;;;;;;;1.13;0.98;;;21.40;27.90;;;;;;5012284;28;20056;-59
2021/12/26 01:28:04;;;;;;;1.33;1.15;;;21.40;27.90;;;;;;5012695;28;20505;-59
2021/12/26 01:30:30;;;;;;;1.63;1.00;;;21.40;27.90;;;;;;5011905;28;20867;-60
2021/12/26 01:32:55;;;;;;;1.63;0.90;;;21.30;27.90;;;;;;5012069;28;20374;-59
2021/12/26 01:35:21;;;;;;;1.00;0.80;;;21.30;27.90;;;;;;5011882;28;20049;-60
2021/12/26 01:37:47;;;;;;;1.40;0.80;;;21.30;28.00;;;;;;5014104;28;20038;-59
2021/12/26 01:40:12;;;;;;;1.52;1.02;;;21.30;27.90;;;;;;5010722;28;27964;-59
2021/12/26 01:42:38;;;;;;;1.60;1.08;;;21.20;27.90;;;;;;5013438;28;21360;-60
2021/12/26 01:45:07;;;;;;;1.77;0.80;;;21.20;27.80;;;;;;5014564;28;20127;-59
2021/12/26 01:47:33;;;;;;;1.52;1.13;;;21.20;27.80;;;;;;5029649;28;20045;-59
2021/12/26 01:49:59;;;;;;;1.75;1.10;;;21.20;27.90;;;;;;5014509;28;20045;-60
2021/12/26 01:52:24;;;;;;;0.80;0.80;;;21.20;28.00;;;;;;5010104;28;23954;-59
2021/12/26 01:55:00;;;;;;;1.15;0.82;;;21.20;28.30;;;;;;5012663;28;20777;-59
2021/12/26 01:57:26;;;;;;;1.38;1.10;;;21.10;28.30;;;;;;5012006;28;20417;-60
2021/12/26 01:59:52;;;;;;;1.73;1.00;;;21.20;28.60;;;;;;5012708;28;20034;-59
2021/12/26 02:02:17;;;;;;;1.33;0.98;;;21.10;28.60;;;;;;5012089;28;20420;-60
2021/12/26 02:04:43;;;;;;;1.00;0.93;;;21.10;28.40;;;;;;5017887;28;20037;-60
2021/12/26 02:07:11;;;;;;;1.45;0.98;;;21.10;28.50;;;;;;5014834;28;23372;-58
2021/12/26 02:09:37;;;;;;;1.42;1.13;;;21.10;28.60;;;;;;5016188;28;20049;-59
2021/12/26 02:12:04;;;;;;;1.20;0.93;;;21.10;28.50;;;;;;5016177;28;20040;-59
2021/12/26 02:14:30;;;;;;;1.05;0.90;;;21.00;28.40;;;;;;5013925;28;20275;-59
2021/12/26 02:16:57;;;;;;;1.83;1.13;;;21.00;28.40;;;;;;5014935;28;20045;-59
2021/12/26 02:19:22;;;;;;;1.15;1.05;;;21.00;28.40;;;;;;5015882;28;20398;-60
2021/12/26 02:24:29;;;;;;;0.80;0.80;;;20.90;28.40;;;;;;5014655;28;20136;-59
2021/12/26 02:29:39;;;;;;;1.98;1.20;;;20.90;28.30;;;;;;5016775;28;20332;-59
2021/12/26 02:32:05;;;;;;;1.25;1.00;;;20.90;28.50;;;;;;5016349;28;20048;-58
2021/12/26 02:34:31;;;;;;;1.42;1.08;;;20.80;28.50;;;;;;5014878;28;20045;-58
2021/12/26 02:36:56;;;;;;;2.72;1.02;;;20.80;28.40;;;;;;5017900;28;20041;-59
2021/12/26 02:39:22;;;;;;;1.00;0.95;;;20.80;28.40;;;;;;5014964;28;20577;-59
2021/12/26 02:41:48;;;;;;;3.75;1.00;;;20.80;28.40;;;;;;5016307;28;20041;-59
2021/12/26 02:44:14;;;;;;;1.95;1.10;;;20.80;28.40;;;;;;5014164;28;20036;-60
2021/12/26 02:46:40;;;;;;;1.05;0.90;;;20.80;28.30;;;;;;5016901;28;20434;-58
2021/12/26 02:49:07;;;;;;;3.00;1.00;;;20.80;28.30;;;;;;5013274;28;20053;-59
2021/12/26 02:51:32;;;;;;;1.05;0.95;;;20.70;28.30;;;;;;5016721;28;20148;-59
2021/12/26 02:53:58;;;;;;;2.55;1.10;;;20.70;28.20;;;;;;5016183;28;20120;-60
2021/12/26 02:56:24;;;;;;;1.27;0.90;;;20.70;28.20;;;;;;5016288;28;20386;-60
2021/12/26 02:58:49;;;;;;;1.95;1.00;;;20.70;28.20;;;;;;5015905;28;20073;-60
2021/12/26 03:01:18;;;;;;;1.05;0.82;;;20.70;28.10;;;;;;5009811;28;20044;-59
2021/12/26 03:03:44;;;;;;;2.28;1.02;;;20.70;28.10;;;;;;5011280;28;28396;-59
2021/12/26 03:06:29;;;;;;;1.73;0.93;;;20.70;28.10;;;;;;5010193;28;20041;-59
2021/12/26 03:08:56;;;;;;;2.35;1.10;;;20.60;28.10;;;;;;5047550;28;20071;-59
2021/12/26 03:11:22;;;;;;;1.23;0.93;;;20.60;28.00;;;;;;5012037;28;20623;-58
2021/12/26 03:13:48;;;;;;;1.48;0.82;;;20.60;27.90;;;;;;5015070;28;20041;-60
2021/12/26 03:16:14;;;;;;;1.13;0.80;;;20.60;27.90;;;;;;5012412;28;20511;-60
2021/12/26 03:18:40;;;;;;;1.45;1.00;;;20.60;27.90;;;;;;5013854;28;20239;-59
2021/12/26 03:21:06;;;;;;;3.45;1.10;;;20.60;28.10;;;;;;5012094;28;20541;-59
2021/12/26 03:23:31;;;;;;;2.70;0.80;;;20.60;27.80;;;;;;5014687;28;20104;-59
2021/12/26 03:26:00;;;;;;;2.17;0.93;;;20.60;27.70;;;;;;5011514;28;20477;-59
2021/12/26 03:28:27;;;;;;;2.70;1.02;;;20.60;27.70;;;;;;5046988;28;20116;-60
2021/12/26 03:30:53;;;;;;;1.00;0.85;;;20.60;27.70;;;;;;5008834;28;26312;-59
2021/12/26 03:33:19;;;;;;;0.93;0.80;;;20.60;27.70;;;;;;5012737;28;20190;-59
2021/12/26 03:35:45;;;;;;;0.90;0.70;;;20.60;27.60;;;;;;5013557;28;20048;-58
2021/12/26 03:38:13;;;;;;;1.30;0.80;;;20.50;27.50;;;;;;5016090;28;20041;-59
2021/12/26 03:40:40;;;;;;;1.17;1.00;;;20.50;27.60;;;;;;5015362;28;20215;-59
2021/12/26 03:43:06;;;;;;;1.92;0.80;;;20.50;27.50;;;;;;5014368;28;20037;-59
2021/12/26 03:45:32;;;;;;;1.00;0.80;;;20.60;27.50;;;;;;5011919;28;23373;-59
2021/12/26 03:47:58;;;;;;;1.73;1.00;;;20.50;27.40;;;;;;5013628;28;20121;-59
2021/12/26 03:50:27;;;;;;;1.08;0.90;;;20.50;27.40;;;;;;5014460;28;20548;-59
2021/12/26 03:52:56;;;;;;;2.45;0.90;;;20.60;27.50;;;;;;5013219;28;20069;-60
2021/12/26 03:55:24;;;;;;;1.73;0.90;;;20.60;27.50;;;;;;5042909;28;20041;-59
2021/12/26 03:57:49;;;;;;;1.00;0.90;;;20.50;27.40;;;;;;5016325;28;20083;-59
2021/12/26 04:00:15;;;;;;;2.13;0.95;;;20.50;27.40;;;;;;5010209;28;20113;-59
2021/12/26 04:02:42;;;;;;;3.50;0.90;;;20.50;27.40;;;;;;5015036;28;20187;-59
2021/12/26 04:05:09;;;;;;;2.55;1.17;;;20.60;27.50;;;;;;5012622;28;20561;-59
2021/12/26 04:07:34;;;;;;;3.25;0.90;;;20.60;27.40;;;;;;5013442;28;20485;-60
2021/12/26 04:10:00;;;;;;;6.85;1.15;;;20.60;27.50;;;;;;5014642;28;20050;-60
2021/12/26 04:12:25;;;;;;;2.85;0.88;;;20.60;27.50;;;;;;5012848;28;20033;-59
2021/12/26 04:14:51;;;;;;;3.00;1.20;;;20.60;27.50;;;;;;5013734;28;27297;-59
2021/12/26 04:17:16;;;;;;;3.42;1.00;;;20.60;27.50;;;;;;5012247;28;20045;-60
2021/12/26 04:19:42;;;;;;;1.02;0.90;;;20.60;27.50;;;;;;5016239;28;20038;-59
2021/12/26 04:22:08;;;;;;;1.30;0.70;;;20.60;27.50;;;;;;5013075;28;20072;-60
2021/12/26 04:24:34;;;;;;;1.25;0.90;;;20.60;27.60;;;;;;5012896;28;20045;-60
2021/12/26 04:27:00;;;;;;;2.85;1.10;;;20.60;27.60;;;;;;5012626;28;20111;-59
2021/12/26 04:29:25;;;;;;;1.88;0.70;;;20.60;27.60;;;;;;5012161;28;25849;-60
2021/12/26 04:31:51;;;;;;;1.10;1.00;;;20.60;27.50;;;;;;5014469;28;20056;-60
2021/12/26 04:34:16;;;;;;;1.98;0.98;;;20.60;27.50;;;;;;5014262;28;20135;-60
2021/12/26 04:36:42;;;;;;;1.95;1.05;;;20.60;27.50;;;;;;5012459;28;20069;-60
2021/12/26 04:39:08;;;;;;;1.45;0.70;;;20.60;27.50;;;;;;5012248;28;20077;-59
2021/12/26 04:41:33;;;;;;;1.10;1.00;;;20.60;27.50;;;;;;5015879;28;20037;-60
2021/12/26 04:43:59;;;;;;;2.03;1.15;;;20.60;27.50;;;;;;5010949;28;20044;-59
2021/12/26 04:46:25;;;;;;;1.25;1.00;;;20.60;27.50;;;;;;5014959;28;20491;-59
2021/12/26 04:48:50;;;;;;;1.42;1.00;;;20.70;27.50;;;;;;5012468;28;20502;-59
2021/12/26 04:51:16;;;;;;;1.20;0.90;;;20.70;27.50;;;;;;5016140;28;20073;-59
2021/12/26 04:53:42;;;;;;;4.82;0.90;;;20.70;27.50;;;;;;5010300;28;20124;-59
2021/12/26 04:56:08;;;;;;;1.33;0.98;;;20.70;27.50;;;;;;5012085;28;20099;-60
2021/12/26 04:58:34;;;;;;;1.45;0.90;;;20.70;27.50;;;;;;5012179;28;20065;-59
2021/12/26 05:01:00;;;;;;;0.95;0.70;;;20.70;27.50;;;;;;5011851;28;20099;-59
2021/12/26 05:03:26;;;;;;;1.40;1.10;;;20.70;27.60;;;;;;5008505;28;20587;-60
2021/12/26 05:05:52;;;;;;;1.60;0.90;;;20.70;27.50;;;;;;5009315;28;20095;-59
2021/12/26 05:08:18;;;;;;;1.45;0.75;;;20.70;27.50;;;;;;5014174;28;20686;-60
2021/12/26 05:10:44;;;;;;;1.35;0.90;;;20.70;27.50;;;;;;5012506;28;23727;-60
2021/12/26 05:13:09;;;;;;;1.13;0.82;;;20.80;27.60;;;;;;5015137;28;20080;-60
2021/12/26 05:15:35;;;;;;;0.82;0.82;;;20.80;27.50;;;;;;5010707;28;20057;-59
2021/12/26 05:18:02;;;;;;;1.30;0.88;;;20.80;27.60;;;;;;5014676;28;20395;-60
2021/12/26 05:20:28;;;;;;;0.90;0.80;;;20.80;27.50;;;;;;5009731;28;20082;-59
2021/12/26 05:22:56;;;;;;;1.20;0.80;;;20.80;27.60;;;;;;5014915;28;20034;-59
2021/12/26 05:25:23;;;;;;;1.30;1.00;;;20.80;27.50;;;;;;5010235;28;20042;-59
2021/12/26 05:27:51;;;;;;;2.55;0.90;;;20.80;27.50;;;;;;5010684;28;20037;-59
2021/12/26 05:30:19;;;;;;;1.00;0.80;;;20.80;27.50;;;;;;5012894;28;20079;-59
2021/12/26 05:32:45;;;;;;;1.17;0.80;;;20.80;27.40;;;;;;5012111;28;20038;-60
2021/12/26 05:35:12;;;;;;;1.10;0.90;;;20.80;27.50;;;;;;5014233;28;20057;-59
2021/12/26 05:37:40;;;;;;;1.30;0.98;;;20.80;27.50;;;;;;5011445;28;20057;-59
2021/12/26 05:40:08;;;;;;;2.30;0.93;;;20.80;27.60;;;;;;5048547;28;20465;-59
2021/12/26 05:42:33;;;;;;;1.10;0.93;;;20.90;27.70;;;;;;5017466;28;20152;-60
2021/12/26 05:44:59;;;;;;;1.35;0.90;;;20.90;27.60;;;;;;5016853;28;20044;-59
2021/12/26 05:47:26;;;;;;;0.98;0.88;;;20.90;27.50;;;;;;5016950;28;20155;-59
2021/12/26 05:49:52;;;;;;;1.60;0.90;;;20.90;27.60;;;;;;5017522;28;20092;-60
2021/12/26 05:52:18;;;;;;;1.20;1.10;;;20.90;27.60;;;;;;5015589;28;25611;-59
2021/12/26 05:54:45;;;;;;;0.90;0.80;;;20.90;27.70;;;;;;5017165;28;20122;-59
2021/12/26 05:57:10;;;;;;;1.05;0.95;;;20.90;27.70;;;;;;5017905;28;20087;-59
2021/12/26 05:59:36;;;;;;;1.33;0.70;;;20.90;27.50;;;;;;5018342;28;20045;-60
2021/12/26 06:02:02;;;;;;;1.00;0.90;;;20.90;27.70;;;;;;5017396;28;20037;-58
2021/12/26 06:04:28;;;;;;;1.02;0.80;;;20.90;27.70;;;;;;5018469;28;20147;-60
2021/12/26 06:06:54;;;;;;;1.23;1.10;;;20.90;27.60;;;;;;5000832;28;27232;-59
2021/12/26 06:09:19;;;;;;;1.73;0.90;;;20.90;27.70;;;;;;5016418;28;20117;-59
2021/12/26 06:11:45;;;;;;;3.55;0.80;;;20.90;27.80;;;;;;5015716;28;20060;-59
2021/12/26 06:14:11;;;;;;;1.50;0.80;;;20.90;27.90;;;;;;5016465;28;20386;-60
2021/12/26 06:16:36;;;;;;;1.13;0.93;;;20.90;27.90;;;;;;5015366;28;20159;-60
2021/12/26 06:19:02;;;;;;;1.20;0.73;;;20.90;27.80;;;;;;5014491;28;20497;-59
2021/12/26 06:21:28;;;;;;;1.50;1.20;;;21.00;27.90;;;;;;5015680;28;24987;-59
2021/12/26 06:23:53;;;;;;;1.02;0.90;;;21.00;27.70;;;;;;5015552;28;20103;-60
2021/12/26 06:26:22;;;;;;;1.10;1.00;;;21.00;27.60;;;;;;5019177;28;20041;-59
2021/12/26 06:28:48;;;;;;;2.03;0.95;;;21.00;27.70;;;;;;5017021;28;20053;-59
2021/12/26 06:31:13;;;;;;;1.45;1.00;;;21.00;28.40;;;;;;5018016;28;20075;-59
2021/12/26 06:33:40;;;;;;;1.42;0.70;;;21.00;27.80;;;;;;5016777;28;20159;-59
2021/12/26 06:36:07;;;;;;;1.58;0.90;;;21.00;28.00;;;;;;5018324;28;20037;-59
2021/12/26 06:38:34;;;;;;;1.42;0.93;;;21.00;28.00;;;;;;5016341;28;20401;-59
2021/12/26 06:41:04;;;;;;;1.48;1.00;;;21.00;28.50;;;;;;5015680;28;20128;-59
2021/12/26 06:43:31;;;;;;;7.47;0.95;;;21.00;27.80;;;;;;5015595;28;20069;-59
2021/12/26 06:45:56;;;;;;;0.90;0.90;;;21.00;27.80;;;;;;5047483;28;20453;-59
2021/12/26 06:48:22;;;;;;;1.65;0.85;;;21.00;27.70;;;;;;5014717;28;20049;-59
2021/12/26 06:50:49;;;;;;;0.73;0.73;;;21.00;27.70;;;;;;5013013;28;20069;-59
2021/12/26 06:53:15;;;;;;;1.13;0.73;;;21.10;27.80;;;;;;5016549;28;20073;-59
2021/12/26 06:55:41;;;;;;;1.98;1.00;;;21.00;27.80;;;;;;5016299;28;20049;-59
2021/12/26 06:58:07;;;;;;;1.20;0.80;;;21.00;27.80;;;;;;5014713;28;20381;-59
2021/12/26 07:00:34;;;;;;;1.30;1.20;;;21.10;27.70;;;;;;5014562;28;20075;-59
2021/12/26 07:02:59;;;;;;;0.85;0.73;;;21.10;27.70;;;;;;5014291;28;25494;-60
2021/12/26 07:05:25;;;;;;;1.30;1.00;;;21.10;27.70;;;;;;5016198;28;20381;-59
2021/12/26 07:07:52;;;;;;;1.70;1.10;;;21.10;27.70;;;;;;5015090;28;20041;-59
2021/12/26 07:10:18;;;;;;;0.95;0.82;;;21.10;27.60;;;;;;5015553;28;20037;-60
2021/12/26 07:12:44;;;;;;;1.38;1.15;;;21.10;27.60;;;;;;5016922;28;20033;-60
2021/12/26 07:15:11;;;;;;;1.27;1.10;;;21.10;27.60;;;;;;5018209;28;20439;-60
2021/12/26 07:17:37;;;;;;;1.13;0.98;;;21.10;27.50;;;;;;5014557;28;20448;-58
2021/12/26 07:20:04;;;;;;;0.98;0.70;;;21.10;27.50;;;;;;5015645;28;20046;-59
2021/12/26 07:22:30;;;;;;;1.20;0.80;;;21.10;27.50;;;;;;5015041;28;20133;-59
2021/12/26 07:24:55;;;;;;;0.80;0.80;;;21.10;27.50;;;;;;5013952;28;21101;-59
2021/12/26 07:27:22;;;;;;;0.98;0.85;;;21.10;27.40;;;;;;5017478;28;20037;-59
2021/12/26 07:29:48;;;;;;;1.10;1.00;;;21.10;27.40;;;;;;5013399;28;20440;-59
2021/12/26 07:32:14;;;;;;;1.35;0.98;;;21.10;27.40;;;;;;5017174;28;20060;-59
2021/12/26 07:34:40;;;;;;;1.58;0.68;;;21.20;27.50;;;;;;5015188;28;20919;-60
2021/12/26 07:37:07;;;;;;;1.02;1.00;;;21.20;27.40;;;;;;5014642;28;20041;-59
2021/12/26 07:39:33;;;;;;;0.90;0.82;;;21.20;27.40;;;;;;5016112;28;20111;-59
2021/12/26 07:41:58;;;;;;;1.15;1.02;;;21.20;27.50;;;;;;5014097;28;20811;-59
2021/12/26 07:44:24;;;;;;;1.30;1.08;;;21.20;27.50;;;;;;5011858;28;25602;-59
2021/12/26 07:46:50;;;;;;;0.85;0.85;;;21.10;27.30;;;;;;5014331;28;20048;-60
2021/12/26 07:49:17;;;;;;;1.33;1.05;;;21.20;27.30;;;;;;5017962;28;20120;-59
2021/12/26 07:51:44;;;;;;;1.48;1.13;;;21.20;27.30;;;;;;5013973;28;20728;-60
2021/12/26 07:54:12;;;;;;;0.90;0.90;;;21.20;27.30;;;;;;5014938;28;20037;-59
2021/12/26 07:56:38;;;;;;;1.42;1.10;;;21.20;27.40;;;;;;5015566;28;20099;-59
2021/12/26 07:59:03;;;;;;;1.27;1.00;;;21.20;27.40;;;;;;5011347;28;21496;-59
2021/12/26 08:01:29;;;;;;;1.10;1.00;;;21.20;27.30;;;;;;5015130;28;20032;-59
2021/12/26 08:03:56;;;;;;;1.20;0.95;;;21.20;27.30;;;;;;5013790;28;20056;-59
2021/12/26 08:06:22;;;;;;;1.02;0.90;;;21.20;27.30;;;;;;5015793;28;20204;-59
2021/12/26 08:08:48;;;;;;;1.40;0.90;;;21.20;27.40;;;;;;5015022;28;20140;-59
2021/12/26 08:11:14;;;;;;;1.67;0.90;;;21.20;27.40;;;;;;5011017;28;20052;-59
2021/12/26 08:13:40;;;;;;;1.00;0.90;;;21.20;27.40;;;;;;5013566;28;20045;-59
2021/12/26 08:16:06;;;;;;;1.70;1.10;;;21.20;27.30;;;;;;5015928;28;20068;-60
2021/12/26 08:18:32;;;;;;;1.00;1.00;;;21.20;27.30;;;;;;5015314;28;20045;-59
2021/12/26 08:20:58;;;;;;;0.90;0.90;;;21.20;27.30;;;;;;5013288;28;20041;-59
2021/12/26 08:23:24;;;;;;;1.40;1.20;;;21.20;27.40;;;;;;5015062;28;20158;-60
2021/12/26 08:25:50;;;;;;;1.38;1.00;;;21.20;27.30;;;;;;5010617;28;20481;-60
2021/12/26 08:28:16;;;;;;;3.85;1.00;;;21.20;27.30;;;;;;5011429;28;20056;-60
2021/12/26 08:30:43;;;;;;;2.58;1.15;;;21.30;27.40;;;;;;5004790;28;20168;-58
2021/12/26 08:33:09;;;;;;;1.45;1.00;;;21.20;27.40;;;;;;5010215;28;20136;-59
2021/12/26 08:35:35;;;;;;;1.63;1.20;;;21.30;27.50;;;;;;5014698;28;20093;-59
2021/12/26 08:38:02;;;;;;;2.15;1.40;;;21.30;27.50;;;;;;5011309;28;20409;-63
2021/12/26 08:40:28;;;;;;;1.70;1.30;;;21.20;27.60;;;;;;5013383;28;21903;-59
2021/12/26 08:42:53;;;;;;;1.50;0.90;;;21.30;27.70;;;;;;5009207;28;20509;-60
2021/12/26 08:45:19;;;;;;;1.77;1.15;;;21.30;27.80;;;;;;5013070;28;20481;-59
2021/12/26 08:47:46;;;;;;;1.30;1.20;;;21.30;27.80;;;;;;5014128;28;20144;-59
2021/12/26 08:50:12;;;;;;;1.13;0.98;;;21.30;27.80;;;;;;5011136;28;20487;-59
2021/12/26 08:52:39;;;;;;;2.47;1.13;;;21.30;27.90;;;;;;5013501;28;20563;-60
2021/12/26 08:55:06;;;;;;;1.33;1.20;;;21.30;27.90;;;;;;5011049;28;20499;-59
2021/12/26 08:57:32;;;;;;;1.80;1.08;;;21.30;28.00;;;;;;5011810;28;20130;-59
2021/12/26 08:59:59;;;;;;;1.38;0.95;;;21.30;28.10;;;;;;5012013;28;20598;-60
2021/12/26 09:02:26;;;;;;;1.75;1.00;;;21.30;28.10;;;;;;5012643;28;20034;-59
2021/12/26 09:04:51;;;;;;;1.20;1.00;;;21.30;28.30;;;;;;5011880;28;20124;-59
2021/12/26 09:07:17;;;;;;;1.60;0.90;;;21.30;28.30;;;;;;5012936;28;20114;-59
2021/12/26 09:09:46;;;;;;;1.20;1.10;;;21.30;28.30;;;;;;5012607;28;24274;-59
2021/12/26 09:12:12;;;;;;;2.15;1.20;;;21.30;28.30;;;;;;5013411;28;20049;-60
2021/12/26 09:14:38;;;;;;;1.30;1.10;;;21.40;28.40;;;;;;5015553;28;20812;-59
2021/12/26 09:17:05;;;;;;;1.25;0.80;;;21.40;28.40;;;;;;5016791;28;20045;-60
2021/12/26 09:19:32;;;;;;;2.35;1.08;;;21.40;28.40;;;;;;5016180;28;20042;-59
2021/12/26 09:22:00;;;;;;;1.05;0.90;;;21.40;28.40;;;;;;5016486;28;20033;-59
2021/12/26 09:24:26;;;;;;;2.55;0.90;;;21.40;28.40;;;;;;5015391;28;21683;-58
2021/12/26 09:26:52;;;;;;;1.00;0.90;;;21.40;28.50;;;;;;5014710;28;20038;-59
2021/12/26 09:29:17;;;;;;;1.00;0.95;;;21.40;28.50;;;;;;5018020;28;20052;-59
2021/12/26 09:31:43;;;;;;;1.30;1.20;;;21.40;28.50;;;;;;5016418;28;20485;-60
2021/12/26 09:34:09;;;;;;;2.05;0.90;;;21.40;28.60;;;;;;5016940;28;20552;-59
2021/12/26 09:36:35;;;;;;;1.63;1.10;;;21.40;28.70;;;;;;5015246;28;22265;-59
2021/12/26 09:39:03;;;;;;;1.17;1.08;;;21.40;28.80;;;;;;5016315;28;20065;-59
2021/12/26 09:41:28;;;;;;;1.75;1.00;;;21.50;28.90;;;;;;5016060;28;20046;-59
2021/12/26 09:43:54;;;;;;;1.20;1.02;;;21.50;29.00;;;;;;5014486;28;20049;-59
2021/12/26 09:46:20;;;;;;;2.38;1.10;;;21.50;29.10;;;;;;5015416;28;20129;-59
2021/12/26 09:48:45;;;;;;;4.13;1.00;;;21.50;29.20;;;;;;5016099;28;20105;-59
2021/12/26 09:51:12;;;;;;;1.98;1.10;;;21.50;29.30;;;;;;5010558;28;20053;-59
2021/12/26 09:53:39;;;;;;;1.50;1.00;;;21.50;29.30;;;;;;5015130;28;20045;-59
2021/12/26 09:56:07;;;;;;;1.13;0.98;;;21.50;29.50;;;;;;5015572;28;20573;-59
2021/12/26 09:58:34;;;;;;;1.13;1.02;;;21.50;29.60;;;;;;5015360;28;20042;-59
2021/12/26 10:01:00;;;;;;;2.40;1.00;;;21.50;29.70;;;;;;5015283;28;20040;-59
2021/12/26 10:03:33;;;;;;;3.42;1.00;;;21.50;29.70;;;;;;5015402;28;20394;-59
2021/12/26 10:06:05;;;;;;;2.00;0.90;;;21.50;29.70;;;;;;5012524;28;20278;-59
2021/12/26 10:08:33;;;;;;;2.00;0.95;;;21.50;29.70;;;;;;5017389;28;20473;-60
2021/12/26 10:11:12;;;;;;;1.73;1.00;;;21.50;29.80;;;;;;5014144;28;20061;-59
2021/12/26 10:13:45;;;;;;;1.63;0.90;;;21.50;29.80;;;;;;5013705;28;20038;-60
2021/12/26 10:16:11;;;;;;;1.30;1.13;;;21.50;29.90;;;;;;5015096;28;20128;-59
2021/12/26 10:18:39;;;;;;;3.67;1.60;;;21.50;29.90;;;;;;5013475;28;23776;-59
2021/12/26 10:21:44;;;;;;;2.85;1.10;;;21.50;30.00;;;;;;5012846;28;20037;-60
2021/12/26 10:24:17;;;;;;;1.27;1.13;;;21.50;30.20;;;;;;4959251;28;20118;-59
2021/12/26 10:26:52;;;;;;;2.22;1.15;;;21.50;30.20;;;;;;5008056;28;20054;-59
2021/12/26 10:29:23;;;;;;;1.42;0.98;;;21.50;30.20;;;;;;5014437;28;20496;-59
2021/12/26 10:32:21;;;;;;;1.38;1.27;;;21.60;31.10;;;;;;5014825;28;20520;-59
2021/12/26 10:35:11;;;;;;;1.35;0.90;;;21.60;30.60;;;;;;4980449;28;27511;-59
2021/12/26 10:37:40;;;;;;;1.20;1.10;;;21.60;30.60;;;;;;5012723;28;20731;-59
2021/12/26 10:40:11;;;;;;;3.00;1.00;;;21.60;30.60;;;;;;5015347;28;20042;-59
2021/12/26 10:42:40;;;;;;;2.28;1.02;;;21.60;30.80;;;;;;5046423;28;20068;-59
2021/12/26 10:45:06;;;;;;;3.58;1.20;;;21.60;30.80;;;;;;5016053;28;20501;-60
2021/12/26 10:47:34;;;;;;;1.73;0.80;;;21.60;30.90;;;;;;5012520;28;20117;-59
2021/12/26 10:50:00;;;;;;;3.30;1.20;;;21.60;30.90;;;;;;5014452;28;20120;-59
2021/12/26 10:52:32;;;;;;;4.13;1.13;;;21.60;30.90;;;;;;5015370;28;20046;-59
2021/12/26 10:55:12;;;;;;;1.98;1.00;;;21.60;31.00;;;;;;5014282;28;20116;-60
2021/12/26 10:57:44;;;;;;;2.33;1.10;;;21.60;31.10;;;;;;5015423;28;20502;-59
2021/12/26 11:00:11;;;;;;;1.52;1.00;;;21.60;31.20;;;;;;5014340;28;20046;-59
2021/12/26 11:02:40;;;;;;;2.05;1.15;;;21.70;31.20;;;;;;5012534;28;27766;-59
2021/12/26 11:05:12;;;;;;;1.95;1.50;;;21.70;31.10;;;;;;5016302;28;20084;-57
2021/12/26 11:07:48;;;;;;;4.88;1.90;;;21.60;31.00;;;;;;5016039;28;20092;-59
2021/12/26 11:10:21;;;;;;;3.65;2.35;;;21.70;31.10;;;;;;5014672;28;20034;-60
2021/12/26 11:12:54;;;;;;;5.70;3.03;;;21.70;31.30;;;;;;5017535;28;20465;-60
2021/12/26 11:15:21;;;;;;;6.93;3.78;;;21.70;31.40;;;;;;5013001;28;23599;-60
2021/12/26 11:18:17;;;;;;;8.77;3.78;;;21.70;31.50;;;;;;5017669;28;20114;-60
2021/12/26 11:20:46;;;;;;;8.45;4.40;;;21.70;31.70;;;;;;5011625;28;20103;-61
2021/12/26 11:23:22;;;;;;;9.30;4.53;;;21.70;31.80;;;;;;5016743;28;20078;-61
2021/12/26 11:25:54;;;;;;;9.95;5.07;;;21.70;32.00;;;;;;5015681;28;20053;-61
2021/12/26 11:28:26;;;;;;;9.65;5.13;;;21.70;32.10;;;;;;5014480;28;20037;-60
2021/12/26 11:30:54;;;;;;;10.02;4.43;;;21.70;32.20;;;;;;5015650;28;20046;-59
2021/12/26 11:33:21;;;;;;;8.98;5.20;;;21.70;32.40;;;;;;5011164;28;20034;-61
2021/12/26 11:35:47;;;;;;;11.80;5.00;;;21.70;32.50;;;;;;5014780;28;20154;-60
2021/12/26 11:38:17;;;;;;;8.82;4.20;;;21.70;32.70;;;;;;5015221;28;20037;-60
2021/12/26 11:40:44;;;;;;;12.00;5.30;;;21.70;32.70;;;;;;5013480;28;20232;-59
2021/12/26 11:43:30;;;;;;;12.05;4.93;;;21.70;32.80;;;;;;5016362;28;20465;-60
2021/12/26 11:46:15;;;;;;;11.48;4.85;;;21.70;33.10;;;;;;5014651;28;20091;-60
2021/12/26 11:49:08;;;;;;;8.82;4.45;;;21.70;33.10;;;;;;5014628;28;20049;-60
2021/12/26 11:51:43;;;;;;;11.75;5.00;;;21.70;33.20;;;;;;5013763;28;20045;-60
2021/12/26 11:54:33;;;;;;;8.02;4.00;;;21.70;33.40;;;;;;5012980;28;20033;-60
2021/12/26 11:57:46;;;;;;;9.20;4.07;;;21.70;33.30;;;;;;5014268;28;20042;-60
2021/12/26 12:00:16;;;;;;;8.18;3.85;;;21.70;33.20;;;;;;5017151;28;20362;-60
2021/12/26 12:03:03;;;;;;;6.60;4.18;;;21.70;33.10;;;;;;5016148;28;20063;-60
2021/12/26 12:05:41;;;;;;;9.52;4.00;;;21.70;33.10;;;;;;5044198;28;20438;-60
2021/12/26 12:08:09;;;;;;;11.02;3.72;;;21.70;33.00;;;;;;5016531;28;20068;-60
2021/12/26 12:10:54;;;;;;;6.78;3.53;;;21.70;33.00;;;;;;5011913;28;20037;-60
2021/12/26 12:13:26;;;;;;;9.80;3.58;;;21.70;33.00;;;;;;5013796;28;20087;-60
2021/12/26 12:15:53;;;;;;;6.47;3.45;;;21.70;32.90;;;;;;5013384;28;20057;-60
2021/12/26 12:18:25;;;;;;;8.27;3.33;;;21.70;32.80;;;;;;5016257;28;20045;-60
2021/12/26 12:21:19;;;;;;;6.28;3.35;;;21.70;33.00;;;;;;5017328;28;20089;-60
2021/12/26 12:24:07;;;;;;;6.40;3.20;;;21.70;33.00;;;;;;5011085;28;20120;-59
2021/12/26 12:26:42;;;;;;;7.15;3.58;;;21.70;33.00;;;;;;5011704;28;20037;-60
2021/12/26 12:29:10;;;;;;;7.05;3.00;;;21.70;33.00;;;;;;5013708;28;20038;-60
2021/12/26 12:31:37;;;;;;;7.10;2.80;;;21.70;33.00;;;;;;5014241;28;20045;-60
2021/12/26 12:34:06;;;;;;;7.88;3.47;;;21.70;33.10;;;;;;5013635;28;20060;-60
2021/12/26 12:36:35;;;;;;;5.65;3.25;;;21.70;33.10;;;;;;5010756;28;20060;-60
2021/12/26 12:39:15;;;;;;;4.70;2.60;;;21.70;33.10;;;;;;5012011;28;20042;-59
2021/12/26 12:41:48;;;;;;;4.63;2.63;;;21.70;33.20;;;;;;5015536;28;20041;-59
2021/12/26 12:44:24;;;;;;;5.05;2.55;;;21.70;33.00;;;;;;5013415;28;20095;-60
2021/12/26 12:47:06;;;;;;;4.35;2.80;;;21.70;33.20;;;;;;5015903;28;20045;-60
2021/12/26 12:49:53;;;;;;;4.07;2.67;;;21.70;33.20;;;;;;5012421;28;20042;-61
2021/12/26 12:52:40;;;;;;;6.18;2.85;;;21.70;33.10;;;;;;5011683;28;20123;-60
2021/12/26 12:55:20;;;;;;;5.40;2.28;;;21.70;33.10;;;;;;5012825;28;25227;-60
2021/12/26 12:57:52;;;;;;;4.68;2.80;;;21.70;33.00;;;;;;5011779;28;20033;-60
2021/12/26 13:00:24;;;;;;;4.90;2.30;;;21.70;33.00;;;;;;5012823;28;20518;-61